createdAt,value
2017-10-23T00:00:53.110Z,91.44
2017-10-23T00:03:24.573Z,92.01
2017-10-23T00:05:56.177Z,92.07
2017-10-23T00:08:27.642Z,91.48
2017-10-23T00:10:59.112Z,91.45
2017-10-23T00:13:30.803Z,91.96
2017-10-23T00:16:04.341Z,91.83
2017-10-23T00:18:39.018Z,92.17
2017-10-23T00:21:10.821Z,91.80
2017-10-23T00:23:44.511Z,92.11
2017-10-23T00:26:15.599Z,92.62
2017-10-23T00:28:47.209Z,92.58
2017-10-23T00:31:18.638Z,92.22
2017-10-23T00:33:49.828Z,92.57
2017-10-23T00:36:23.174Z,92.35
2017-10-23T00:38:54.139Z,92.73
2017-10-23T00:41:26.188Z,92.53
2017-10-23T00:43:57.301Z,92.41
2017-10-23T00:46:28.698Z,92.20
2017-10-23T00:49:00.852Z,91.66
2017-10-23T00:51:31.785Z,91.77
2017-10-23T00:54:03.415Z,91.61
2017-10-23T00:56:34.862Z,92.00
2017-10-23T00:59:06.230Z,92.02
2017-10-23T01:01:40.508Z,91.42
2017-10-23T01:04:11.685Z,91.30
2017-10-23T01:06:42.929Z,91.78
2017-10-23T01:09:14.284Z,91.76
2017-10-23T01:11:45.736Z,91.93
2017-10-23T01:14:17.742Z,91.69
2017-10-23T01:16:49.177Z,90.78
2017-10-23T01:19:20.786Z,91.62
2017-10-23T01:21:54.076Z,91.43
2017-10-23T01:24:26.323Z,91.47
2017-10-23T01:26:57.774Z,91.63
2017-10-23T01:29:29.580Z,91.25
2017-10-23T01:32:01.959Z,91.50
2017-10-23T01:34:33.678Z,91.10
2017-10-23T01:37:05.797Z,91.20
2017-10-23T01:39:38.781Z,91.29
2017-10-23T01:42:10.347Z,91.23
2017-10-23T01:44:44.006Z,91.54
2017-10-23T01:47:15.078Z,91.08
2017-10-23T01:49:46.684Z,91.97
2017-10-23T01:52:18.106Z,91.92
2017-10-23T01:54:49.440Z,90.97
2017-10-23T01:57:20.657Z,91.10
2017-10-23T01:59:52.399Z,90.90
2017-10-23T02:02:26.117Z,90.86
2017-10-23T02:04:59.302Z,90.80
2017-10-23T02:07:31.186Z,91.27
2017-10-23T02:10:03.077Z,91.43
2017-10-23T02:12:34.802Z,90.85
2017-10-23T02:15:05.932Z,91.50
2017-10-23T02:17:39.609Z,90.92
2017-10-23T02:20:10.940Z,90.76
2017-10-23T02:22:43.229Z,90.86
2017-10-23T02:25:14.512Z,90.54
2017-10-23T02:27:45.658Z,90.81
2017-10-23T02:30:17.349Z,91.09
2017-10-23T02:32:48.600Z,90.68
2017-10-23T02:35:20.212Z,90.74
2017-10-23T02:37:51.806Z,90.60
2017-10-23T02:40:23.018Z,90.09
2017-10-23T02:42:54.372Z,89.98
2017-10-23T02:45:25.727Z,90.10
2017-10-23T02:47:57.288Z,90.05
2017-10-23T02:50:28.646Z,90.14
2017-10-23T02:52:59.915Z,89.77
2017-10-23T02:55:31.318Z,90.13
2017-10-23T02:58:03.029Z,90.16
2017-10-23T03:00:34.420Z,89.93
2017-10-23T03:03:05.889Z,89.68
2017-10-23T03:05:38.628Z,89.35
2017-10-23T03:08:10.069Z,90.11
2017-10-23T03:10:44.147Z,89.72
2017-10-23T03:13:15.086Z,90.06
2017-10-23T03:15:46.403Z,89.91
2017-10-23T03:18:18.290Z,89.78
2017-10-23T03:20:49.682Z,89.69
2017-10-23T03:23:20.951Z,89.59
2017-10-23T03:25:52.831Z,89.33
2017-10-23T03:28:24.080Z,89.41
2017-10-23T03:30:55.068Z,89.56
2017-10-23T03:33:26.697Z,89.30
2017-10-23T03:35:57.782Z,89.53
2017-10-23T03:38:29.323Z,89.22
2017-10-23T03:41:00.520Z,88.87
2017-10-23T03:43:31.629Z,88.85
2017-10-23T03:46:03.489Z,88.97
2017-10-23T03:48:34.677Z,89.74
2017-10-23T03:51:07.910Z,89.24
2017-10-23T03:53:41.840Z,89.14
2017-10-23T03:56:13.029Z,88.89
2017-10-23T03:58:44.783Z,89.00
2017-10-23T04:01:15.913Z,88.60
2017-10-23T04:03:47.385Z,88.66
2017-10-23T04:06:18.940Z,88.46
2017-10-23T04:08:49.992Z,88.29
2017-10-23T04:11:21.581Z,88.65
2017-10-23T04:13:53.065Z,88.01
2017-10-23T04:16:24.358Z,87.82
2017-10-23T04:18:56.333Z,87.59
2017-10-23T04:21:27.903Z,87.28
2017-10-23T04:23:59.612Z,87.46
2017-10-23T04:26:31.758Z,86.85
2017-10-23T04:29:02.853Z,87.25
2017-10-23T04:31:34.346Z,87.02
2017-10-23T04:34:05.950Z,87.16
2017-10-23T04:36:41.629Z,87.23
2017-10-23T04:39:14.816Z,87.64
2017-10-23T04:41:46.141Z,87.48
2017-10-23T04:44:18.389Z,87.34
2017-10-23T04:46:50.398Z,87.44
2017-10-23T04:49:21.808Z,87.29
2017-10-23T04:51:53.089Z,87.55
2017-10-23T04:54:25.309Z,87.51
2017-10-23T04:56:56.015Z,86.49
2017-10-23T04:59:28.418Z,86.72
2017-10-23T05:02:01.629Z,87.08
2017-10-23T05:04:37.796Z,86.85
2017-10-23T05:07:11.376Z,86.96
2017-10-23T05:09:44.750Z,87.11
2017-10-23T05:12:15.647Z,87.00
2017-10-23T05:14:46.272Z,87.22
2017-10-23T05:17:18.003Z,86.91
2017-10-23T05:19:49.136Z,87.01
2017-10-23T05:22:22.620Z,87.37
2017-10-23T05:24:54.713Z,87.20
2017-10-23T05:27:26.249Z,86.85
2017-10-23T05:29:58.036Z,86.45
2017-10-23T05:32:30.873Z,86.75
2017-10-23T05:35:04.163Z,87.19
2017-10-23T05:37:37.290Z,87.17
2017-10-23T05:40:11.480Z,86.59
2017-10-23T05:42:49.811Z,87.31
2017-10-23T05:45:22.212Z,87.37
2017-10-23T05:47:56.773Z,87.61
2017-10-23T05:50:28.885Z,87.29
2017-10-23T05:53:04.274Z,87.18
2017-10-23T05:55:38.210Z,87.16
2017-10-23T05:58:10.262Z,87.34
2017-10-23T06:00:45.649Z,87.46
2017-10-23T06:03:17.544Z,87.21
2017-10-23T06:05:49.563Z,87.47
2017-10-23T06:08:22.005Z,87.79
2017-10-23T06:10:57.508Z,88.13
2017-10-23T06:13:28.802Z,88.06
2017-10-23T06:16:00.588Z,88.06
2017-10-23T06:18:31.736Z,88.81
2017-10-23T06:21:03.337Z,88.87
2017-10-23T06:23:35.019Z,88.99
2017-10-23T06:26:08.864Z,89.14
2017-10-23T06:28:41.850Z,89.32
2017-10-23T06:31:13.555Z,89.48
2017-10-23T06:33:44.272Z,89.49
2017-10-23T06:36:15.213Z,89.63
2017-10-23T06:38:46.110Z,90.82
2017-10-23T06:41:17.337Z,90.83
2017-10-23T06:43:48.705Z,90.13
2017-10-23T06:46:20.361Z,89.80
2017-10-23T06:48:51.236Z,90.24
2017-10-23T06:51:22.392Z,90.67
2017-10-23T06:53:53.794Z,90.81
2017-10-23T06:56:24.852Z,90.13
2017-10-23T06:58:56.375Z,90.25
2017-10-23T07:01:27.487Z,90.41
2017-10-23T07:03:59.556Z,90.04
2017-10-23T07:06:33.481Z,89.78
2017-10-23T07:11:51.093Z,89.87
2017-10-23T07:14:23.793Z,90.45
2017-10-23T07:16:59.902Z,90.01
2017-10-23T07:19:33.199Z,89.69
2017-10-23T07:22:07.807Z,89.61
2017-10-23T07:27:23.323Z,89.40
2017-10-23T07:29:57.180Z,88.66
2017-10-23T07:32:28.505Z,88.60
2017-10-23T07:34:59.504Z,88.49
2017-10-23T07:37:30.749Z,87.66
2017-10-23T07:40:02.807Z,87.81
2017-10-23T07:42:33.680Z,87.57
2017-10-23T07:45:05.865Z,87.39
2017-10-23T07:47:38.962Z,87.50
2017-10-23T07:50:13.337Z,87.28
2017-10-23T07:52:44.436Z,87.62
2017-10-23T07:55:16.200Z,87.76
2017-10-23T07:57:47.955Z,87.05
2017-10-23T08:00:20.080Z,87.47
2017-10-23T08:02:51.282Z,87.38
2017-10-23T08:05:25.753Z,86.56
2017-10-23T08:07:58.339Z,87.22
2017-10-23T08:10:30.173Z,87.04
2017-10-23T08:13:01.655Z,87.08
2017-10-23T08:15:32.907Z,86.25
2017-10-23T08:18:03.884Z,86.23
2017-10-23T08:23:30.208Z,85.82
2017-10-23T08:26:04.035Z,85.88
2017-10-23T08:28:34.738Z,85.04
2017-10-23T08:31:07.051Z,84.50
2017-10-23T08:33:42.834Z,85.92
2017-10-23T08:36:13.895Z,86.23
2017-10-23T08:38:45.472Z,86.00
2017-10-23T08:41:16.202Z,84.50
2017-10-23T08:43:48.709Z,85.14
2017-10-23T08:46:20.953Z,85.25
2017-10-23T08:48:51.511Z,84.58
2017-10-23T08:51:25.834Z,84.21
2017-10-23T08:53:56.919Z,84.86
2017-10-23T08:56:27.741Z,82.82
2017-10-23T08:58:59.232Z,83.28
2017-10-23T09:01:30.059Z,84.54
2017-10-23T09:04:01.198Z,83.80
2017-10-23T09:06:31.994Z,83.27
2017-10-23T09:09:02.829Z,83.64
2017-10-23T09:14:15.635Z,82.95
2017-10-23T09:16:48.188Z,83.03
2017-10-23T09:19:24.382Z,81.67
2017-10-23T09:22:04.730Z,82.52
2017-10-23T09:24:55.827Z,81.69
2017-10-23T09:27:27.291Z,81.53
2017-10-23T09:29:58.952Z,83.13
2017-10-23T09:32:30.043Z,81.51
2017-10-23T09:35:01.185Z,81.41
2017-10-23T09:37:33.427Z,79.87
2017-10-23T09:40:10.969Z,81.61
2017-10-23T09:42:47.492Z,81.22
2017-10-23T09:45:19.136Z,81.62
2017-10-23T09:47:49.887Z,79.71
2017-10-23T09:50:22.385Z,80.34
2017-10-23T09:52:54.954Z,80.18
2017-10-23T09:55:26.306Z,79.27
2017-10-23T09:58:04.924Z,77.86
2017-10-23T10:00:38.283Z,79.32
2017-10-23T10:03:10.735Z,78.73
2017-10-23T10:06:01.701Z,77.20
2017-10-23T10:08:39.272Z,79.17
2017-10-23T10:11:23.722Z,78.38
2017-10-23T10:16:49.916Z,78.23
2017-10-23T10:19:24.481Z,79.24
2017-10-23T10:22:04.626Z,77.49
2017-10-23T10:24:51.041Z,79.36
2017-10-23T10:27:27.813Z,79.02
2017-10-23T10:30:03.174Z,77.98
2017-10-23T10:32:48.728Z,78.05
2017-10-23T10:35:29.113Z,77.61
2017-10-23T10:40:51.015Z,77.98
2017-10-23T10:43:27.633Z,78.23
2017-10-23T10:45:59.669Z,76.17
2017-10-23T10:48:32.477Z,76.72
2017-10-23T10:51:05.270Z,77.01
2017-10-23T10:53:39.495Z,77.05
2017-10-23T10:56:11.604Z,77.18
2017-10-23T10:58:43.519Z,77.12
2017-10-23T11:01:15.807Z,76.04
2017-10-23T11:03:48.536Z,77.04
2017-10-23T11:06:19.847Z,77.15
2017-10-23T11:08:52.436Z,77.55
2017-10-23T11:11:25.087Z,77.05
2017-10-23T11:13:56.697Z,76.66
2017-10-23T11:16:32.521Z,76.99
2017-10-23T11:19:14.594Z,75.07
2017-10-23T11:21:48.899Z,75.62
2017-10-23T11:24:20.365Z,75.60
2017-10-23T11:26:52.630Z,75.31
2017-10-23T11:29:23.322Z,76.74
2017-10-23T11:31:55.553Z,75.39
2017-10-23T11:34:27.023Z,74.69
2017-10-23T11:36:58.120Z,75.66
2017-10-23T11:39:30.057Z,74.62
2017-10-23T11:42:01.816Z,72.70
2017-10-23T11:44:34.209Z,74.87
2017-10-23T11:47:09.482Z,75.78
2017-10-23T11:49:43.389Z,74.32
2017-10-23T11:52:15.607Z,74.73
2017-10-23T11:54:48.014Z,73.79
2017-10-23T11:57:19.586Z,74.98
2017-10-23T11:59:50.863Z,75.08
2017-10-23T12:02:22.351Z,74.98
2017-10-23T12:04:54.103Z,73.80
2017-10-23T12:07:25.054Z,73.66
2017-10-23T12:09:56.334Z,74.52
2017-10-23T12:12:28.942Z,74.70
2017-10-23T12:15:01.664Z,75.89
2017-10-23T12:17:33.059Z,74.00
2017-10-23T12:20:05.908Z,74.90
2017-10-23T12:22:42.901Z,74.73
2017-10-23T12:25:14.250Z,73.85
2017-10-23T12:27:46.192Z,75.20
2017-10-23T12:30:17.545Z,74.25
2017-10-23T12:32:48.597Z,74.67
2017-10-23T12:35:20.877Z,75.25
2017-10-23T12:37:52.944Z,74.47
2017-10-23T12:40:24.624Z,74.54
2017-10-23T12:43:02.521Z,73.78
2017-10-23T12:45:37.261Z,73.21
2017-10-23T12:48:09.523Z,73.09
2017-10-23T12:50:45.072Z,74.87
2017-10-23T12:53:19.355Z,74.22
2017-10-23T12:55:56.330Z,72.89
2017-10-23T12:58:27.464Z,73.36
2017-10-23T13:00:59.290Z,74.90
2017-10-23T13:03:31.427Z,73.68
2017-10-23T13:06:07.405Z,74.98
2017-10-23T13:08:42.797Z,73.85
2017-10-23T13:14:12.444Z,74.82
2017-10-23T13:16:48.917Z,74.35
2017-10-23T13:19:22.288Z,74.57
2017-10-23T13:22:00.250Z,73.75
2017-10-23T13:24:33.614Z,74.47
2017-10-23T13:27:07.679Z,74.18
2017-10-23T13:29:39.073Z,74.01
2017-10-23T13:32:11.231Z,73.97
2017-10-23T13:34:42.770Z,74.34
2017-10-23T13:37:13.762Z,75.53
2017-10-23T13:39:45.944Z,74.95
2017-10-23T13:42:19.602Z,74.05
2017-10-23T13:44:54.624Z,72.97
2017-10-23T13:47:28.805Z,73.18
2017-10-23T13:50:02.041Z,73.92
2017-10-23T13:52:33.761Z,73.71
2017-10-23T13:55:10.430Z,72.95
2017-10-23T13:57:43.624Z,73.45
2017-10-23T14:00:22.391Z,74.04
2017-10-23T14:02:57.136Z,73.75
2017-10-23T14:05:29.553Z,73.12
2017-10-23T14:08:01.435Z,72.86
2017-10-23T14:10:38.906Z,72.15
2017-10-23T14:13:10.464Z,71.75
2017-10-23T14:15:45.626Z,72.42
2017-10-23T14:18:17.311Z,71.83
2017-10-23T14:20:49.372Z,72.62
2017-10-23T14:23:22.895Z,73.25
2017-10-23T14:26:01.149Z,72.39
2017-10-23T14:28:35.284Z,72.95
2017-10-23T14:31:11.861Z,72.97
2017-10-23T14:36:31.733Z,72.82
2017-10-23T14:39:07.243Z,72.10
2017-10-23T14:41:41.425Z,72.90
2017-10-23T14:44:14.715Z,72.09
2017-10-23T14:46:50.004Z,73.30
2017-10-23T14:49:21.118Z,73.04
2017-10-23T14:51:53.823Z,73.33
2017-10-23T14:54:26.930Z,73.41
2017-10-23T14:56:59.366Z,74.43
2017-10-23T14:59:34.159Z,74.70
2017-10-23T15:02:10.878Z,73.79
2017-10-23T15:04:43.016Z,73.88
2017-10-23T15:07:19.691Z,74.42
2017-10-23T15:09:52.110Z,74.53
2017-10-23T15:12:25.948Z,75.33
2017-10-23T15:15:00.400Z,74.97
2017-10-23T15:17:32.386Z,75.11
2017-10-23T15:20:09.614Z,75.11
2017-10-23T15:22:45.898Z,74.93
2017-10-23T15:25:19.948Z,75.22
2017-10-23T15:27:54.069Z,75.27
2017-10-23T15:30:27.393Z,76.04
2017-10-23T15:33:04.144Z,75.79
2017-10-23T15:35:38.695Z,75.87
2017-10-23T15:38:09.903Z,76.25
2017-10-23T15:40:48.258Z,76.05
2017-10-23T15:43:22.367Z,75.78
2017-10-23T15:45:56.006Z,75.99
2017-10-23T15:48:27.997Z,75.53
2017-10-23T15:51:02.151Z,76.04
2017-10-23T15:53:34.781Z,76.91
2017-10-23T15:56:09.524Z,76.67
2017-10-23T15:58:43.327Z,76.62
2017-10-23T16:01:16.061Z,77.11
2017-10-23T16:03:53.597Z,78.55
2017-10-23T16:06:27.513Z,78.88
2017-10-23T16:09:02.408Z,78.80
2017-10-23T16:11:48.380Z,78.84
2017-10-23T16:15:17.283Z,79.21
2017-10-23T16:21:02.066Z,80.08
2017-10-23T16:23:38.138Z,80.78
2017-10-23T16:26:23.823Z,81.06
2017-10-23T16:29:03.962Z,81.61
2017-10-23T16:31:44.150Z,82.91
2017-10-23T16:34:20.547Z,82.81
2017-10-23T16:37:01.139Z,83.48
2017-10-23T16:39:32.847Z,83.86
2017-10-23T16:42:03.995Z,83.17
2017-10-23T16:44:41.824Z,83.48
2017-10-23T16:47:13.412Z,84.30
2017-10-23T16:49:47.266Z,85.24
2017-10-23T16:52:22.615Z,84.64
2017-10-23T16:54:54.817Z,84.27
2017-10-23T16:57:31.508Z,84.58
2017-10-23T17:00:06.114Z,85.26
2017-10-23T17:02:40.672Z,85.47
2017-10-23T17:05:11.998Z,85.62
2017-10-23T17:07:44.604Z,85.48
2017-10-23T17:10:17.268Z,86.56
2017-10-23T17:12:49.529Z,86.32
2017-10-23T17:15:20.600Z,86.89
2017-10-23T17:17:51.609Z,87.02
2017-10-23T17:20:22.876Z,87.12
2017-10-23T17:22:55.593Z,87.54
2017-10-23T17:25:29.050Z,88.74
2017-10-23T17:28:05.197Z,87.91
2017-10-23T17:30:41.648Z,88.19
2017-10-23T17:33:12.302Z,88.73
2017-10-23T17:35:52.573Z,88.92
2017-10-23T17:38:28.850Z,89.11
2017-10-23T17:41:14.008Z,89.40
2017-10-23T17:43:55.267Z,89.49
2017-10-23T17:46:43.465Z,90.36
2017-10-23T17:49:24.686Z,90.01
2017-10-23T17:52:01.902Z,91.39
2017-10-23T17:54:41.637Z,90.66
2017-10-23T17:57:14.350Z,90.49
2017-10-23T17:59:47.443Z,91.05
2017-10-23T18:02:19.726Z,90.70
2017-10-23T18:04:51.229Z,91.00
2017-10-23T18:07:23.290Z,91.10
2017-10-23T18:09:54.829Z,91.49
2017-10-23T18:12:28.405Z,91.77
2017-10-23T18:15:05.184Z,92.90
2017-10-23T18:17:41.056Z,92.03
2017-10-23T18:20:14.364Z,92.20
2017-10-23T18:22:46.298Z,92.36
2017-10-23T18:25:18.508Z,92.58
2017-10-23T18:28:02.431Z,92.72
2017-10-23T18:30:40.215Z,92.69
2017-10-23T18:33:14.239Z,92.76
2017-10-23T18:35:50.892Z,93.43
2017-10-23T18:38:24.431Z,93.11
2017-10-23T18:41:07.215Z,92.62
2017-10-23T18:43:45.767Z,92.36
2017-10-23T18:46:21.194Z,92.26
2017-10-23T18:48:56.048Z,92.47
2017-10-23T18:51:28.191Z,93.14
2017-10-23T18:54:03.884Z,91.65
2017-10-23T18:59:17.140Z,92.08
2017-10-23T19:01:48.124Z,92.17
2017-10-23T19:04:25.117Z,91.88
2017-10-23T19:12:47.285Z,91.84
2017-10-23T19:15:42.679Z,92.80
2017-10-23T19:18:20.266Z,92.07
2017-10-23T19:20:53.056Z,92.48
2017-10-23T19:23:25.771Z,92.56
2017-10-23T19:25:58.787Z,92.28
2017-10-23T19:28:39.023Z,92.32
2017-10-23T19:31:16.568Z,92.20
2017-10-23T19:33:54.280Z,91.79
2017-10-23T19:39:08.920Z,91.81
2017-10-23T19:41:45.607Z,92.90
2017-10-23T19:44:17.247Z,92.44
2017-10-23T19:46:50.519Z,92.42
2017-10-23T19:49:26.018Z,92.42
2017-10-23T19:52:05.064Z,92.91
2017-10-23T19:54:41.374Z,92.48
2017-10-23T19:57:19.235Z,92.28
2017-10-23T19:59:59.145Z,92.72
2017-10-23T20:02:34.507Z,92.41
2017-10-23T20:05:16.588Z,92.47
2017-10-23T20:07:50.353Z,92.57
2017-10-23T20:10:25.164Z,93.06
2017-10-23T20:12:58.856Z,92.71
2017-10-23T20:15:39.014Z,92.51
2017-10-23T20:18:19.426Z,92.55
2017-10-23T20:21:08.302Z,92.16
2017-10-23T20:23:41.576Z,92.00
2017-10-23T20:26:13.745Z,91.61
2017-10-23T20:28:44.606Z,91.58
2017-10-23T20:31:17.165Z,91.67
2017-10-23T20:33:49.855Z,91.59
2017-10-23T20:36:22.644Z,92.20
2017-10-23T20:38:56.041Z,92.05
2017-10-23T20:41:28.574Z,92.04
2017-10-23T20:44:06.225Z,91.56
2017-10-23T20:46:40.180Z,91.38
2017-10-23T20:49:11.405Z,91.42
2017-10-23T20:51:44.905Z,91.57
2017-10-23T20:54:17.595Z,91.50
2017-10-23T20:56:48.774Z,91.84
2017-10-23T20:59:20.276Z,91.75
2017-10-23T21:01:53.169Z,91.30
2017-10-23T21:04:30.159Z,91.69
2017-10-23T21:07:02.479Z,91.50
2017-10-23T21:09:37.902Z,92.09
2017-10-23T21:12:09.083Z,91.30
2017-10-23T21:14:41.835Z,91.01
2017-10-23T21:17:12.938Z,91.27
2017-10-23T21:19:44.192Z,91.45
2017-10-23T21:22:14.895Z,90.96
2017-10-23T21:24:46.335Z,91.24
2017-10-23T21:27:17.373Z,91.37
2017-10-23T21:29:48.739Z,91.86
2017-10-23T21:32:20.028Z,91.50
2017-10-23T21:34:53.010Z,91.63
2017-10-23T21:37:25.616Z,91.76
2017-10-23T21:39:57.582Z,91.36
2017-10-23T21:42:42.149Z,92.14
2017-10-23T21:45:14.257Z,91.54
2017-10-23T21:54:11.303Z,91.01
2017-10-23T21:56:44.512Z,91.56
2017-10-23T21:59:15.915Z,91.18
2017-10-23T22:01:48.018Z,91.28
2017-10-23T22:04:19.575Z,91.37
2017-10-23T22:06:50.861Z,91.47
2017-10-23T22:09:22.976Z,91.44
2017-10-23T22:11:54.271Z,91.25
2017-10-23T22:14:25.544Z,91.13
2017-10-23T22:16:56.633Z,91.18
2017-10-23T22:19:27.780Z,91.07
2017-10-23T22:21:58.983Z,91.40
2017-10-23T22:24:30.545Z,90.97
2017-10-23T22:27:02.409Z,91.29
2017-10-23T22:29:39.311Z,91.28
2017-10-23T22:32:10.506Z,91.37
2017-10-23T22:34:45.248Z,91.59
2017-10-23T22:37:17.810Z,91.22
2017-10-23T22:39:52.501Z,91.14
2017-10-23T22:42:27.076Z,91.06
2017-10-23T22:45:03.756Z,91.19
2017-10-23T22:47:37.551Z,91.06
2017-10-23T22:50:10.953Z,91.36
2017-10-23T22:52:43.589Z,91.48
2017-10-23T22:55:16.545Z,91.75
2017-10-23T22:57:49.226Z,91.72
2017-10-23T23:00:22.608Z,91.76
2017-10-23T23:02:55.669Z,91.77
2017-10-23T23:05:29.461Z,91.82
2017-10-23T23:08:03.241Z,91.82
2017-10-23T23:10:37.535Z,91.68
2017-10-23T23:13:10.215Z,91.29
2017-10-23T23:15:41.351Z,91.43
2017-10-23T23:18:14.116Z,90.85
2017-10-23T23:20:45.293Z,90.57
2017-10-23T23:23:17.042Z,90.70
2017-10-23T23:25:49.994Z,90.80
2017-10-23T23:28:21.174Z,90.24
2017-10-23T23:30:53.457Z,90.45
2017-10-23T23:33:25.215Z,90.07
2017-10-23T23:35:57.182Z,90.06
2017-10-23T23:38:28.813Z,90.02
2017-10-23T23:41:00.115Z,90.39
2017-10-23T23:43:32.483Z,90.24
2017-10-23T23:46:04.277Z,90.33
2017-10-23T23:48:35.622Z,90.44
2017-10-23T23:51:06.739Z,90.44
2017-10-23T23:53:40.860Z,90.36
2017-10-23T23:56:12.942Z,90.24
2017-10-23T23:58:43.959Z,90.42
